Delosexpress — SW9406 — position and weather

sailwx.info

Track history (hours):
 
Tides and Currents Weather Stations Pressure Air Temp Water Temp Dewpoint Dewpoint Depression Visibility Wind Speed Wind Dir Waves Ship Positions

Delosexpress

Last reported at 2017-Sep-20 12:19 UTC. Time now 2017-Sep-20 22:06 UTC.
Position N 37°27' E 025°19'.

Length 40 m; draft 2.6 m.

Type: Ship. MMSI: 237039500.

Date/timePositionNaut miles runAvg speedWind from/ knotsBaromVisibWave heightAir tempDewpointWater temp
2017-Sep-20 12:19N 37°27' E 025°19'413.4
2017-Sep-20 12:00N 37°24' E 025°16'0 0.1
2017-Sep-20 10:57N 37°24' E 025°16'0 0.9
2017-Sep-20 10:29N 37°24' E 025°16'4 3.6
2017-Sep-20 09:22N 37°27' E 025°19'411.1
2017-Sep-20 09:00N 37°24' E 025°16'0 0.0
2017-Sep-20 08:30N 37°24' E 025°16'0 0.4
2017-Sep-20 07:59N 37°24' E 025°16'0 0.4
2017-Sep-20 07:30N 37°24' E 025°16'0 0.0
2017-Sep-20 06:59N 37°24' E 025°16'0 0.0
2017-Sep-20 06:26N 37°24' E 025°16'4 0.5
2017-Sep-19 22:18N 37°27' E 025°19'616.2
2017-Sep-19 21:54N 37°27' E 025°11'5 3.0
2017-Sep-19 20:09N 37°27' E 025°05'216.4
2017-Sep-19 20:00N 37°27' E 025°07'816.6
2017-Sep-19 19:30N 37°27' E 025°18'1 0.4
2017-Sep-19 16:24N 37°27' E 025°19'410.7
2017-Sep-19 16:00N 37°24' E 025°16'0 0.0
2017-Sep-19 15:31N 37°24' E 025°16'0 0.0
2017-Sep-19 14:10N 37°24' E 025°16'0 0.0
2017-Sep-19 14:00N 37°24' E 025°16'4 2.5
2017-Sep-19 12:21N 37°27' E 025°19'4 1.3
2017-Sep-19 09:18N 37°24' E 025°16'0 0.0
2017-Sep-19 08:58N 37°24' E 025°16'4 2.0
2017-Sep-19 06:55N 37°27' E 025°19'4 8.6
2017-Sep-19 06:26N 37°24' E 025°16'4 0.2
2017-Sep-18 12:20N 37°27' E 025°20'412.7
2017-Sep-18 12:00N 37°24' E 025°16'0 0.0
2017-Sep-18 11:28N 37°24' E 025°16'0 0.0
2017-Sep-18 11:00N 37°24' E 025°16'0 0.0
2017-Sep-18 10:31N 37°24' E 025°16'0 0.0
2017-Sep-18 10:01N 37°24' E 025°16'0 0.0
2017-Sep-18 09:30N 37°24' E 025°16'0 0.0
2017-Sep-18 09:00N 37°24' E 025°16'4 0.3
2017-Sep-17 16:21N 37°27' E 025°20'4 1.9
2017-Sep-17 14:05N 37°24' E 025°16'0 0.0
2017-Sep-17 13:58N 37°24' E 025°16'4 2.7
2017-Sep-17 12:22N 37°27' E 025°20'411.8
2017-Sep-17 12:00N 37°24' E 025°16'0 0.1
2017-Sep-17 10:09N 37°24' E 025°16'210.2
2017-Sep-17 10:00N 37°25' E 025°16'3 4.9
2017-Sep-17 09:23N 37°27' E 025°20'4 1.6
2017-Sep-17 06:46N 37°24' E 025°16'0 0.0
2017-Sep-17 06:30N 37°24' E 025°16'4 0.2
2017-Sep-16 12:21N 37°27' E 025°20'4 1.4
2017-Sep-16 09:24N 37°24' E 025°16'0 0.0
2017-Sep-16 09:00N 37°24' E 025°16'4 0.2
2017-Sep-15 09:24N 37°27' E 025°19'4 1.4
2017-Sep-15 06:31N 37°24' E 025°16'0 0.2
2017-Sep-15 06:29N 37°24' E 025°16'4 0.3
2017-Sep-14 16:50N 37°27' E 025°19'4 1.7
2017-Sep-14 14:23N 37°24' E 025°16'4 1.1
2017-Sep-14 10:26N 37°27' E 025°19'4 2.7
2017-Sep-14 08:51N 37°24' E 025°16'4 6.3
2017-Sep-14 08:10N 37°27' E 025°19'214.8
2017-Sep-14 08:00N 37°26' E 025°17'2 4.1
2017-Sep-14 07:30N 37°24' E 025°16'5 7.7
2017-Sep-14 06:52N 37°28' E 025°20'3 5.4
2017-Sep-14 06:13N 37°25' E 025°17'3 0.2
2017-Sep-13 13:55N 37°28' E 025°20'0 0.1
2017-Sep-13 13:29N 37°28' E 025°20'0 0.0
2017-Sep-13 13:00N 37°28' E 025°20'1 1.2
2017-Sep-13 12:20N 37°27' E 025°20'413.0
2017-Sep-13 12:00N 37°24' E 025°16'0 0.1
2017-Sep-13 10:26N 37°24' E 025°16'4 4.0
2017-Sep-13 09:24N 37°27' E 025°19'4 8.4
2017-Sep-13 08:55N 37°24' E 025°16'0 0.0
2017-Sep-13 07:01N 37°24' E 025°16'0 0.0
2017-Sep-13 07:00N 37°24' E 025°16'0 0.0
2017-Sep-13 06:30N 37°24' E 025°16'4 0.3
2017-Sep-12 16:51N 37°27' E 025°20'412.8
2017-Sep-12 16:30N 37°24' E 025°16'0 0.1
2017-Sep-12 14:47N 37°24' E 025°16'0 0.0
2017-Sep-12 14:30N 37°24' E 025°16'2 0.7
2017-Sep-12 12:09N 37°25' E 025°17'2 9.3
2017-Sep-12 11:59N 37°24' E 025°16'0 0.0
2017-Sep-12 09:45N 37°24' E 025°16'0 0.0
2017-Sep-12 09:30N 37°24' E 025°16'1 1.0
2017-Sep-12 08:59N 37°24' E 025°16'4 4.9
2017-Sep-12 08:08N 37°27' E 025°20'0 0.0
2017-Sep-12 07:40N 37°27' E 025°20'0 0.2
2017-Sep-12 07:03N 37°27' E 025°20'114.1
2017-Sep-12 06:58N 37°27' E 025°18'2 3.6
2017-Sep-12 06:25N 37°25' E 025°16'3 0.3
2017-Sep-11 21:20N 37°27' E 025°20'615.4
2017-Sep-11 20:58N 37°27' E 025°12'5 1.8
2017-Sep-11 18:03N 37°27' E 025°06'116.3
2017-Sep-11 18:00N 37°27' E 025°07'816.1
2017-Sep-11 17:30N 37°28' E 025°17'2 4.4
2017-Sep-11 17:00N 37°28' E 025°20'0 0.0
2017-Sep-11 16:30N 37°28' E 025°20'1 0.2
2017-Sep-11 12:32N 37°27' E 025°19'0 0.6
2017-Sep-11 12:21N 37°27' E 025°19'4 1.2
2017-Sep-11 08:57N 37°24' E 025°16'4 0.2
2017-Sep-10 12:24N 37°27' E 025°20'  
Track history (hours):
 
Tides and Currents Weather Stations Pressure Air Temp Water Temp Dewpoint Dewpoint Depression Visibility Wind Speed Wind Dir Waves Ship Positions

Delosexpress

Last reported at 2017-Sep-20 12:19 UTC. Time now 2017-Sep-20 22:06 UTC.
Position N 37°27' E 025°19'.

Length 40 m; draft 2.6 m.

Type: Ship. MMSI: 237039500.

Date/timePositionNaut miles runAvg speedWind from/ knotsBaromVisibWave heightAir tempDewpointWater temp
2017-Sep-20 12:19N 37°27' E 025°19'413.4
2017-Sep-20 12:00N 37°24' E 025°16'0 0.1
2017-Sep-20 10:57N 37°24' E 025°16'0 0.9
2017-Sep-20 10:29N 37°24' E 025°16'4 3.6
2017-Sep-20 09:22N 37°27' E 025°19'411.1
2017-Sep-20 09:00N 37°24' E 025°16'0 0.0
2017-Sep-20 08:30N 37°24' E 025°16'0 0.4
2017-Sep-20 07:59N 37°24' E 025°16'0 0.4
2017-Sep-20 07:30N 37°24' E 025°16'0 0.0
2017-Sep-20 06:59N 37°24' E 025°16'0 0.0
2017-Sep-20 06:26N 37°24' E 025°16'4 0.5
2017-Sep-19 22:18N 37°27' E 025°19'616.2
2017-Sep-19 21:54N 37°27' E 025°11'5 3.0
2017-Sep-19 20:09N 37°27' E 025°05'216.4
2017-Sep-19 20:00N 37°27' E 025°07'816.6
2017-Sep-19 19:30N 37°27' E 025°18'1 0.4
2017-Sep-19 16:24N 37°27' E 025°19'410.7
2017-Sep-19 16:00N 37°24' E 025°16'0 0.0
2017-Sep-19 15:31N 37°24' E 025°16'0 0.0
2017-Sep-19 14:10N 37°24' E 025°16'0 0.0
2017-Sep-19 14:00N 37°24' E 025°16'4 2.5
2017-Sep-19 12:21N 37°27' E 025°19'4 1.3
2017-Sep-19 09:18N 37°24' E 025°16'0 0.0
2017-Sep-19 08:58N 37°24' E 025°16'4 2.0
2017-Sep-19 06:55N 37°27' E 025°19'4 8.6
2017-Sep-19 06:26N 37°24' E 025°16'4 0.2
2017-Sep-18 12:20N 37°27' E 025°20'412.7
2017-Sep-18 12:00N 37°24' E 025°16'0 0.0
2017-Sep-18 11:28N 37°24' E 025°16'0 0.0
2017-Sep-18 11:00N 37°24' E 025°16'0 0.0
2017-Sep-18 10:31N 37°24' E 025°16'0 0.0
2017-Sep-18 10:01N 37°24' E 025°16'0 0.0
2017-Sep-18 09:30N 37°24' E 025°16'0 0.0
2017-Sep-18 09:00N 37°24' E 025°16'4 0.3
2017-Sep-17 16:21N 37°27' E 025°20'4 1.9
2017-Sep-17 14:05N 37°24' E 025°16'0 0.0
2017-Sep-17 13:58N 37°24' E 025°16'4 2.7
2017-Sep-17 12:22N 37°27' E 025°20'411.8
2017-Sep-17 12:00N 37°24' E 025°16'0 0.1
2017-Sep-17 10:09N 37°24' E 025°16'210.2
2017-Sep-17 10:00N 37°25' E 025°16'3 4.9
2017-Sep-17 09:23N 37°27' E 025°20'4 1.6
2017-Sep-17 06:46N 37°24' E 025°16'0 0.0
2017-Sep-17 06:30N 37°24' E 025°16'4 0.2
2017-Sep-16 12:21N 37°27' E 025°20'4 1.4
2017-Sep-16 09:24N 37°24' E 025°16'0 0.0
2017-Sep-16 09:00N 37°24' E 025°16'4 0.2
2017-Sep-15 09:24N 37°27' E 025°19'4 1.4
2017-Sep-15 06:31N 37°24' E 025°16'0 0.2
2017-Sep-15 06:29N 37°24' E 025°16'4 0.3
2017-Sep-14 16:50N 37°27' E 025°19'4 1.7
2017-Sep-14 14:23N 37°24' E 025°16'4 1.1
2017-Sep-14 10:26N 37°27' E 025°19'4 2.7
2017-Sep-14 08:51N 37°24' E 025°16'4 6.3
2017-Sep-14 08:10N 37°27' E 025°19'214.8
2017-Sep-14 08:00N 37°26' E 025°17'2 4.1
2017-Sep-14 07:30N 37°24' E 025°16'5 7.7
2017-Sep-14 06:52N 37°28' E 025°20'3 5.4
2017-Sep-14 06:13N 37°25' E 025°17'3 0.2
2017-Sep-13 13:55N 37°28' E 025°20'0 0.1
2017-Sep-13 13:29N 37°28' E 025°20'0 0.0
2017-Sep-13 13:00N 37°28' E 025°20'1 1.2
2017-Sep-13 12:20N 37°27' E 025°20'413.0
2017-Sep-13 12:00N 37°24' E 025°16'0 0.1
2017-Sep-13 10:26N 37°24' E 025°16'4 4.0
2017-Sep-13 09:24N 37°27' E 025°19'4 8.4
2017-Sep-13 08:55N 37°24' E 025°16'0 0.0
2017-Sep-13 07:01N 37°24' E 025°16'0 0.0
2017-Sep-13 07:00N 37°24' E 025°16'0 0.0
2017-Sep-13 06:30N 37°24' E 025°16'4 0.3
2017-Sep-12 16:51N 37°27' E 025°20'412.8
2017-Sep-12 16:30N 37°24' E 025°16'0 0.1
2017-Sep-12 14:47N 37°24' E 025°16'0 0.0
2017-Sep-12 14:30N 37°24' E 025°16'2 0.7
2017-Sep-12 12:09N 37°25' E 025°17'2 9.3
2017-Sep-12 11:59N 37°24' E 025°16'0 0.0
2017-Sep-12 09:45N 37°24' E 025°16'0 0.0
2017-Sep-12 09:30N 37°24' E 025°16'1 1.0
2017-Sep-12 08:59N 37°24' E 025°16'4 4.9
2017-Sep-12 08:08N 37°27' E 025°20'0 0.0
2017-Sep-12 07:40N 37°27' E 025°20'0 0.2
2017-Sep-12 07:03N 37°27' E 025°20'114.1
2017-Sep-12 06:58N 37°27' E 025°18'2 3.6
2017-Sep-12 06:25N 37°25' E 025°16'3 0.3
2017-Sep-11 21:20N 37°27' E 025°20'615.4
2017-Sep-11 20:58N 37°27' E 025°12'5 1.8
2017-Sep-11 18:03N 37°27' E 025°06'116.3
2017-Sep-11 18:00N 37°27' E 025°07'816.1
2017-Sep-11 17:30N 37°28' E 025°17'2 4.4
2017-Sep-11 17:00N 37°28' E 025°20'0 0.0
2017-Sep-11 16:30N 37°28' E 025°20'1 0.2
2017-Sep-11 12:32N 37°27' E 025°19'0 0.6
2017-Sep-11 12:21N 37°27' E 025°19'4 1.2
2017-Sep-11 08:57N 37°24' E 025°16'4 0.2
2017-Sep-10 12:24N 37°27' E 025°20'  

Dump ship's entire track history